首页
METAR-TAF:

METAR-TAF

机场 :

埃夫勒, 法国

纬度: 49-01N, 经度: 001-13E, 海拔: 141米

当前天气观测

该预报发布于28分钟前的07:00 UTC
风速9节,风向南转西南
温度 6°C
湿度 93%
气压 1014 hPa
能见度10公里或以上
1500米以下无云,无积雨云

METAR: LFOE 170700Z AUTO 21009KT CAVOK 06/05 Q1014 TEMPO 4000 -SHRA BECMG 25015G30KT

时间: 08:28 (07:28 UTC)

预报

该预报发布于2小时和28分钟前的05:00 UTC
预报有效从17日的 05点(UTC)到 18日的 03点(UTC)
风速10节,风向西转西南,有时为20节阵风
能见度10公里或以上
少量云层高于2500英尺
散云层高于5000英尺
成为
从 17日的 08点(UTC)到 17日的 10点(UTC)
风速15节,风向西转西南,有时为30节阵风
几率 30% :
短暂存在
从 17日的 07点(UTC)到 17日的 10点(UTC)
能見度: 4000
散云层高于1000英尺
多云层高于2000英尺
小阵雨
短暂存在
从 17日的 10点(UTC)到 17日的 13点(UTC)
风速25节,风向西,有时为40节阵风
能見度: 4000
多云层高于2000英尺, 塔状积云.
小阵雨
几率 30% :
短暂存在
从 17日的 11点(UTC)到 17日的 13点(UTC)
风速30节,风向西,有时为50节阵风
能見度: 2500
多云层高于2000英尺, 积雨云.
阵雨, 小冰雹或雪球
短暂存在
从 17日的 15点(UTC)到 17日的 20点(UTC)
风速25节,风向西转西北,有时为40节阵风
能見度: 3000
多云层高于2000英尺, 积雨云.
阵雨
几率 40% :
短暂存在
从 17日的 15点(UTC)到 17日的 19点(UTC)
能見度: 2000
阵雨, 小冰雹或雪球
成为
从 17日的 20点(UTC)到 17日的 22点(UTC)
风速10节,风向西转西南,有时为20节阵风

TAF: LFOE 170500Z 1705/1803 24010G20KT 9999 FEW025 SCT050 BECMG 1708/1710 25015G30KT PROB30 TEMPO 1707/1710 4000 -SHRA SCT010 BKN020 TEMPO 1710/1713 27025G40KT 4000 -SHRA BKN020TCU PROB30 TEMPO 1711/1713 27030G50KT 2500 SHRAGS BKN020CB TEMPO 1715/1720 29025G40KT 3000 SHRA BKN020CB PROB40 TEMPO 1715/1719 2000 SHRAGS BECMG 1720/1722 24010G20KT

超过4000个机场的气象观测和天气预报(METAR&TAF报告)。

可查询的气象台以黄色和红色小点在地图上表示。

将鼠标移到小点上方,可查看气象台名称。

然后点击查看天气观测和预报。

如需切换地图:点击带黑十字的绿色按钮放大地图;点击带横线的绿色按钮缩小地图;或者点击绿色箭头查看邻近地区的地图。


METAR-TAF: